createdAt,value
2019-01-17T00:01:25.192Z,3.30
2019-01-17T00:04:19.588Z,3.30
2019-01-17T00:07:09.562Z,3.30
2019-01-17T00:09:46.637Z,3.30
2019-01-17T00:12:23.130Z,3.20
2019-01-17T00:15:02.570Z,3.20
2019-01-17T00:17:39.142Z,3.20
2019-01-17T00:20:15.631Z,3.20
2019-01-17T00:22:52.544Z,3.10
2019-01-17T00:25:29.907Z,3.20
2019-01-17T00:28:10.124Z,3.20
2019-01-17T00:30:50.374Z,3.20
2019-01-17T00:33:27.156Z,3.10
2019-01-17T00:36:06.921Z,3.10
2019-01-17T00:38:56.885Z,3.20
2019-01-17T00:41:33.376Z,3.10
2019-01-17T00:44:10.461Z,3.20
2019-01-17T00:46:49.986Z,3.20
2019-01-17T00:49:29.740Z,3.10
2019-01-17T00:52:23.777Z,3.10
2019-01-17T00:55:03.686Z,3.10
2019-01-17T00:57:40.560Z,3.10
2019-01-17T01:00:20.266Z,3.10
2019-01-17T01:03:06.701Z,3.10
2019-01-17T01:05:49.880Z,3.10
2019-01-17T01:08:42.973Z,3.00
2019-01-17T01:11:37.951Z,3.00
2019-01-17T01:14:27.318Z,3.00
2019-01-17T01:17:07.461Z,3.00
2019-01-17T01:19:47.893Z,3.00
2019-01-17T01:22:27.817Z,3.10
2019-01-17T01:25:10.350Z,3.10
2019-01-17T01:27:51.273Z,3.20
2019-01-17T01:30:46.994Z,3.30
2019-01-17T01:33:41.304Z,3.30
2019-01-17T01:36:30.982Z,3.30
2019-01-17T01:39:28.161Z,3.30
2019-01-17T01:42:17.820Z,3.30
2019-01-17T01:45:01.138Z,3.30
2019-01-17T01:47:40.693Z,3.40
2019-01-17T01:50:35.171Z,3.30
2019-01-17T01:53:10.002Z,3.40
2019-01-17T01:55:44.894Z,3.40
2019-01-17T01:58:20.184Z,3.40
2019-01-17T02:00:55.065Z,3.40
2019-01-17T02:03:29.963Z,3.40
2019-01-17T02:06:05.801Z,3.40
2019-01-17T02:08:40.645Z,3.50
2019-01-17T02:11:15.973Z,3.50
2019-01-17T02:13:50.814Z,3.50
2019-01-17T02:16:25.661Z,3.40
2019-01-17T02:19:00.504Z,3.40
2019-01-17T02:21:35.699Z,3.40
2019-01-17T02:24:10.830Z,3.50
2019-01-17T02:26:45.666Z,3.40
2019-01-17T02:29:20.510Z,3.50
2019-01-17T02:31:55.537Z,3.50
2019-01-17T02:34:30.483Z,3.60
2019-01-17T02:37:05.316Z,3.60
2019-01-17T02:39:40.441Z,3.70
2019-01-17T02:42:15.294Z,3.70
2019-01-17T02:44:50.408Z,3.80
2019-01-17T02:47:25.238Z,3.80
2019-01-17T02:50:00.358Z,3.80
2019-01-17T02:52:35.715Z,3.90
2019-01-17T02:55:11.070Z,3.90
2019-01-17T02:57:45.906Z,3.90
2019-01-17T03:00:20.777Z,4.00
2019-01-17T03:02:55.605Z,4.00
2019-01-17T03:05:30.457Z,4.00
2019-01-17T03:08:05.356Z,4.10
2019-01-17T03:10:40.197Z,4.10
2019-01-17T03:13:15.381Z,4.10
2019-01-17T03:15:50.462Z,4.10
2019-01-17T03:18:25.282Z,4.20
2019-01-17T03:21:00.490Z,4.20
2019-01-17T03:23:35.329Z,4.20
2019-01-17T03:26:10.161Z,4.20
2019-01-17T03:28:45.073Z,4.20
2019-01-17T03:31:19.915Z,4.20
2019-01-17T03:33:54.782Z,4.20
2019-01-17T03:36:29.891Z,4.30
2019-01-17T03:39:07.768Z,4.30
2019-01-17T03:41:42.953Z,4.30
2019-01-17T03:44:18.153Z,4.20
2019-01-17T03:46:52.998Z,4.30
2019-01-17T03:49:31.715Z,4.30
2019-01-17T03:52:06.958Z,4.30
2019-01-17T03:54:42.199Z,4.40
2019-01-17T03:57:17.144Z,4.40
2019-01-17T03:59:52.264Z,4.40
2019-01-17T04:02:27.106Z,4.40
2019-01-17T04:05:02.966Z,4.40
2019-01-17T04:07:37.813Z,4.50
2019-01-17T04:10:15.189Z,4.40
2019-01-17T04:12:50.025Z,4.40
2019-01-17T04:15:25.150Z,4.50
2019-01-17T04:18:00.382Z,4.50
2019-01-17T04:20:35.221Z,4.50
2019-01-17T04:23:10.078Z,4.50
2019-01-17T04:25:45.177Z,4.50
2019-01-17T04:28:20.026Z,4.50
2019-01-17T04:30:55.262Z,4.50
2019-01-17T04:33:30.107Z,4.50
2019-01-17T04:36:05.316Z,4.50
2019-01-17T04:38:40.452Z,4.50
2019-01-17T04:41:15.294Z,4.50
2019-01-17T04:43:50.144Z,4.40
2019-01-17T04:46:24.993Z,4.50
2019-01-17T04:48:59.966Z,4.50
2019-01-17T04:51:34.857Z,4.60
2019-01-17T04:54:09.705Z,4.50
2019-01-17T04:56:45.800Z,4.50
2019-01-17T04:59:20.806Z,4.60
2019-01-17T05:01:55.659Z,4.60
2019-01-17T05:04:30.818Z,4.60
2019-01-17T05:07:05.672Z,4.70
2019-01-17T05:09:40.597Z,4.70
2019-01-17T05:12:15.816Z,4.70
2019-01-17T05:14:51.050Z,4.70
2019-01-17T05:17:26.291Z,4.70
2019-01-17T05:20:01.314Z,4.80
2019-01-17T05:22:36.152Z,4.70
2019-01-17T05:25:12.817Z,4.80
2019-01-17T05:27:48.791Z,4.80
2019-01-17T05:30:24.614Z,4.80
2019-01-17T05:32:59.480Z,4.80
2019-01-17T05:35:34.383Z,4.80
2019-01-17T05:38:09.540Z,4.80
2019-01-17T05:40:44.479Z,4.90
2019-01-17T05:43:19.323Z,4.90
2019-01-17T05:45:54.441Z,4.90
2019-01-17T05:48:29.989Z,5.00
2019-01-17T05:51:04.821Z,5.00
2019-01-17T05:53:39.961Z,5.10
2019-01-17T05:56:15.197Z,5.10
2019-01-17T05:58:50.346Z,5.10
2019-01-17T06:01:25.182Z,5.20
2019-01-17T06:04:00.081Z,5.20
2019-01-17T06:06:34.959Z,5.20
2019-01-17T06:09:09.800Z,5.20
2019-01-17T06:11:44.996Z,5.20
2019-01-17T06:14:19.839Z,5.20
2019-01-17T06:16:54.678Z,5.20
2019-01-17T06:19:29.545Z,5.30
2019-01-17T06:22:04.383Z,5.20
2019-01-17T06:24:39.222Z,5.30
2019-01-17T06:27:14.494Z,5.20
2019-01-17T06:29:49.327Z,5.20
2019-01-17T06:32:24.177Z,5.30
2019-01-17T06:34:59.026Z,5.30
2019-01-17T06:37:35.326Z,5.30
2019-01-17T06:40:19.745Z,5.40
2019-01-17T06:42:54.883Z,5.30
2019-01-17T06:45:31.013Z,5.30
2019-01-17T06:48:05.860Z,5.30
2019-01-17T06:50:40.714Z,5.40
2019-01-17T06:53:15.910Z,5.30
2019-01-17T06:55:50.757Z,5.30
2019-01-17T06:58:25.868Z,5.30
2019-01-17T07:01:01.010Z,5.30
2019-01-17T07:03:36.986Z,5.40
2019-01-17T07:06:11.835Z,5.30
2019-01-17T07:08:47.835Z,5.30
2019-01-17T07:11:22.742Z,5.30
2019-01-17T07:13:57.934Z,5.40
2019-01-17T07:16:33.719Z,5.40
2019-01-17T07:19:08.661Z,5.40
2019-01-17T07:21:43.521Z,5.40
2019-01-17T07:24:19.295Z,5.40
2019-01-17T07:26:54.156Z,5.50
2019-01-17T07:29:29.032Z,5.40
2019-01-17T07:32:03.943Z,5.30
2019-01-17T07:34:38.797Z,5.30
2019-01-17T07:37:13.710Z,5.30
2019-01-17T07:39:48.539Z,5.20
2019-01-17T07:42:23.375Z,5.20
2019-01-17T07:44:59.501Z,5.20
2019-01-17T07:47:34.635Z,5.20
2019-01-17T07:50:10.879Z,5.30
2019-01-17T07:52:45.793Z,5.30
2019-01-17T07:55:21.892Z,5.30
2019-01-17T07:57:57.013Z,5.30
2019-01-17T08:00:32.157Z,5.40
2019-01-17T08:03:07.386Z,5.40
2019-01-17T08:05:42.532Z,5.40
2019-01-17T08:08:18.486Z,5.40
2019-01-17T08:10:53.346Z,5.50
2019-01-17T08:13:29.175Z,5.50
2019-01-17T08:16:06.065Z,5.50
2019-01-17T08:18:40.894Z,5.50
2019-01-17T08:21:16.724Z,5.50
2019-01-17T08:23:52.521Z,5.60
2019-01-17T08:26:27.728Z,5.60
2019-01-17T08:29:02.889Z,5.70
2019-01-17T08:31:37.746Z,5.70
2019-01-17T08:34:12.932Z,5.60
2019-01-17T08:36:47.765Z,5.70
2019-01-17T08:39:22.639Z,5.60
2019-01-17T08:41:57.487Z,5.60
2019-01-17T08:44:32.344Z,5.60
2019-01-17T08:47:07.262Z,5.70
2019-01-17T08:49:46.741Z,5.70
2019-01-17T08:52:21.921Z,5.70
2019-01-17T08:54:57.097Z,5.70
2019-01-17T08:57:32.151Z,5.70
2019-01-17T09:00:13.402Z,5.80
2019-01-17T09:02:48.559Z,5.90
2019-01-17T09:05:23.379Z,5.80
2019-01-17T09:07:59.106Z,5.80
2019-01-17T09:10:34.274Z,5.90
2019-01-17T09:13:09.139Z,5.80
2019-01-17T09:15:44.066Z,5.80
2019-01-17T09:18:18.990Z,5.80
2019-01-17T09:20:54.220Z,5.80
2019-01-17T09:23:29.361Z,5.90
2019-01-17T09:26:07.631Z,5.90
2019-01-17T09:28:40.788Z,5.90
2019-01-17T09:31:16.033Z,5.90
2019-01-17T09:33:51.533Z,6.00
2019-01-17T09:36:26.465Z,6.00
2019-01-17T09:39:01.298Z,6.10
2019-01-17T09:41:38.107Z,6.20
2019-01-17T09:44:12.941Z,6.30
2019-01-17T09:46:49.506Z,6.30
2019-01-17T09:49:24.826Z,6.40
2019-01-17T09:52:00.677Z,6.50
2019-01-17T09:54:35.521Z,6.40
2019-01-17T09:57:11.240Z,6.50
2019-01-17T09:59:46.088Z,6.40
2019-01-17T10:02:20.942Z,6.40
2019-01-17T10:04:55.775Z,6.30
2019-01-17T10:07:31.035Z,6.30
2019-01-17T10:10:15.358Z,6.30
2019-01-17T10:12:50.489Z,6.30
2019-01-17T10:15:37.594Z,6.20
2019-01-17T10:18:16.130Z,6.30
2019-01-17T10:21:04.334Z,6.30
2019-01-17T10:23:53.657Z,6.30
2019-01-17T10:26:38.065Z,6.20
2019-01-17T10:29:39.071Z,6.30
2019-01-17T10:32:17.181Z,6.30
2019-01-17T10:35:12.575Z,6.40
2019-01-17T10:38:25.286Z,6.50
2019-01-17T10:41:34.822Z,6.60
2019-01-17T10:44:32.075Z,6.80
2019-01-17T10:47:36.298Z,6.90
2019-01-17T10:50:20.354Z,6.80
2019-01-17T10:53:11.350Z,6.80
2019-01-17T10:55:56.422Z,6.80
2019-01-17T10:58:50.430Z,6.70
2019-01-17T11:01:28.567Z,6.60
2019-01-17T11:04:39.349Z,6.50
2019-01-17T11:07:26.750Z,6.40
2019-01-17T11:10:36.250Z,6.40
2019-01-17T11:13:37.989Z,6.50
2019-01-17T11:16:25.365Z,6.70
2019-01-17T11:19:16.695Z,6.70
2019-01-17T11:22:22.123Z,6.70
2019-01-17T11:25:24.501Z,6.80
2019-01-17T11:28:22.056Z,6.90
2019-01-17T11:31:06.163Z,7.10
2019-01-17T11:34:00.898Z,7.20
2019-01-17T11:36:58.884Z,7.30
2019-01-17T11:39:37.346Z,7.40
2019-01-17T11:42:21.751Z,7.30
2019-01-17T11:44:59.860Z,7.20
2019-01-17T11:47:57.931Z,7.10
2019-01-17T11:50:42.155Z,7.00
2019-01-17T11:53:26.590Z,6.90
2019-01-17T11:56:10.460Z,7.00
2019-01-17T11:59:00.089Z,7.00
2019-01-17T12:01:44.969Z,6.90
2019-01-17T12:04:30.482Z,6.90
2019-01-17T12:07:07.762Z,6.80
2019-01-17T12:09:42.597Z,6.70
2019-01-17T12:12:20.002Z,6.70
2019-01-17T12:14:57.568Z,6.70
2019-01-17T12:17:32.747Z,6.80
2019-01-17T12:20:08.497Z,6.70
2019-01-17T12:22:43.729Z,6.80
2019-01-17T12:25:18.569Z,6.80
2019-01-17T12:27:53.788Z,6.80
2019-01-17T12:30:29.856Z,6.90
2019-01-17T12:33:04.695Z,7.00
2019-01-17T12:35:40.232Z,7.00
2019-01-17T12:38:15.432Z,7.10
2019-01-17T12:40:50.337Z,7.20
2019-01-17T12:43:25.193Z,7.20
2019-01-17T12:46:00.102Z,7.20
2019-01-17T12:48:35.319Z,7.30
2019-01-17T12:51:10.158Z,7.40
2019-01-17T12:53:46.093Z,7.40
2019-01-17T12:56:21.848Z,7.50
2019-01-17T12:58:58.212Z,7.50
2019-01-17T13:01:33.505Z,7.60
2019-01-17T13:04:08.786Z,7.70
2019-01-17T13:06:43.718Z,7.70
2019-01-17T13:09:20.593Z,7.70
2019-01-17T13:11:55.749Z,7.50
2019-01-17T13:14:30.875Z,7.40
2019-01-17T13:17:06.340Z,7.40
2019-01-17T13:19:41.459Z,7.30
2019-01-17T13:22:16.617Z,7.30
2019-01-17T13:24:51.755Z,7.20
2019-01-17T13:27:26.632Z,7.30
2019-01-17T13:30:01.837Z,7.30
2019-01-17T13:32:37.669Z,7.40
2019-01-17T13:35:12.523Z,7.40
2019-01-17T13:37:47.766Z,7.50
2019-01-17T13:40:22.694Z,7.60
2019-01-17T13:42:57.803Z,7.60
2019-01-17T13:45:33.894Z,7.70
2019-01-17T13:48:11.789Z,7.60
2019-01-17T13:50:47.647Z,7.50
2019-01-17T13:53:22.478Z,7.50
2019-01-17T13:55:57.326Z,7.40
2019-01-17T13:58:32.161Z,7.30
2019-01-17T14:01:08.015Z,7.30
2019-01-17T14:03:42.930Z,7.30
2019-01-17T14:06:17.786Z,7.20
2019-01-17T14:08:52.633Z,7.20
2019-01-17T14:11:29.841Z,7.20
2019-01-17T14:14:04.987Z,7.10
2019-01-17T14:16:40.327Z,7.10
2019-01-17T14:19:15.176Z,7.00
2019-01-17T14:21:50.303Z,7.00
2019-01-17T14:24:26.457Z,7.00
2019-01-17T14:27:01.306Z,7.00
2019-01-17T14:29:40.436Z,7.00
2019-01-17T14:32:15.550Z,6.90
2019-01-17T14:34:50.385Z,7.00
2019-01-17T14:37:25.238Z,7.00
2019-01-17T14:40:00.239Z,7.00
2019-01-17T14:42:36.637Z,6.90
2019-01-17T14:45:18.289Z,6.80
2019-01-17T14:47:53.562Z,6.70
2019-01-17T14:50:30.758Z,6.60
2019-01-17T14:53:06.502Z,6.50
2019-01-17T14:55:42.421Z,6.40
2019-01-17T14:58:17.599Z,6.40
2019-01-17T15:00:52.732Z,6.30
2019-01-17T15:03:27.957Z,6.20
2019-01-17T15:06:02.809Z,6.20
2019-01-17T15:08:38.730Z,6.10
2019-01-17T15:11:13.568Z,5.90
2019-01-17T15:13:48.414Z,5.80
2019-01-17T15:16:23.250Z,5.80
2019-01-17T15:18:58.374Z,5.70
2019-01-17T15:21:33.213Z,5.60
2019-01-17T15:24:08.089Z,5.60
2019-01-17T15:26:43.217Z,5.60
2019-01-17T15:29:18.078Z,5.60
2019-01-17T15:31:53.241Z,5.50
2019-01-17T15:34:28.486Z,5.40
2019-01-17T15:37:03.323Z,5.40
2019-01-17T15:39:38.457Z,5.30
2019-01-17T15:42:13.596Z,5.30
2019-01-17T15:44:48.728Z,5.20
2019-01-17T15:47:24.338Z,5.20
2019-01-17T15:50:00.257Z,5.20
2019-01-17T15:52:35.376Z,5.20
2019-01-17T15:55:13.142Z,5.20
2019-01-17T15:57:48.351Z,5.30
2019-01-17T16:00:28.552Z,5.30
2019-01-17T16:03:03.811Z,5.30
2019-01-17T16:05:40.292Z,5.20
2019-01-17T16:08:15.418Z,5.20
2019-01-17T16:10:51.384Z,5.30
2019-01-17T16:13:26.291Z,5.20
2019-01-17T16:16:01.161Z,5.30
2019-01-17T16:18:36.019Z,5.20
2019-01-17T16:21:11.942Z,5.20
2019-01-17T16:23:46.791Z,5.20
2019-01-17T16:26:21.717Z,5.20
2019-01-17T16:28:56.831Z,5.30
2019-01-17T16:31:31.974Z,5.30
2019-01-17T16:34:07.117Z,5.40
2019-01-17T16:36:43.261Z,5.40
2019-01-17T16:39:18.108Z,5.40
2019-01-17T16:41:53.249Z,5.40
2019-01-17T16:44:28.117Z,5.40
2019-01-17T16:47:03.318Z,5.50
2019-01-17T16:49:38.642Z,5.50
2019-01-17T16:52:13.501Z,5.50
2019-01-17T16:54:49.625Z,5.60
2019-01-17T16:57:24.483Z,5.50
2019-01-17T16:59:59.309Z,5.60
2019-01-17T17:02:34.559Z,5.60
2019-01-17T17:05:09.895Z,5.50
2019-01-17T17:07:44.960Z,5.50
2019-01-17T17:10:19.815Z,5.40
2019-01-17T17:12:54.690Z,5.30
2019-01-17T17:15:29.619Z,5.30
2019-01-17T17:18:04.457Z,5.20
2019-01-17T17:20:39.473Z,5.20
2019-01-17T17:23:15.558Z,5.20
2019-01-17T17:25:50.405Z,5.10
2019-01-17T17:28:25.344Z,5.00
2019-01-17T17:31:00.280Z,4.80
2019-01-17T17:33:35.570Z,4.60
2019-01-17T17:36:10.409Z,4.40
2019-01-17T17:38:46.058Z,4.20
2019-01-17T17:41:20.914Z,4.00
2019-01-17T17:43:57.217Z,3.80
2019-01-17T17:46:32.488Z,3.70
2019-01-17T17:49:07.452Z,3.60
2019-01-17T17:51:42.553Z,3.60
2019-01-17T17:54:17.706Z,3.50
2019-01-17T17:56:52.532Z,3.50
2019-01-17T17:59:27.402Z,3.50
2019-01-17T18:02:02.814Z,3.50
2019-01-17T18:04:38.046Z,3.50
2019-01-17T18:07:12.957Z,3.50
2019-01-17T18:09:48.233Z,3.50
2019-01-17T18:12:23.464Z,3.50
2019-01-17T18:14:58.309Z,3.50
2019-01-17T18:17:33.449Z,3.40
2019-01-17T18:20:11.221Z,3.40
2019-01-17T18:22:46.394Z,3.40
2019-01-17T18:25:21.525Z,3.30
2019-01-17T18:27:56.746Z,3.30
2019-01-17T18:30:31.583Z,3.30
2019-01-17T18:33:06.442Z,3.30
2019-01-17T18:35:41.399Z,3.30
2019-01-17T18:38:16.575Z,3.20
2019-01-17T18:40:51.655Z,3.20
2019-01-17T18:43:26.612Z,3.20
2019-01-17T18:46:01.906Z,3.20
2019-01-17T18:48:37.341Z,3.10
2019-01-17T18:51:13.831Z,3.10
2019-01-17T18:53:48.653Z,3.10
2019-01-17T18:56:23.541Z,3.10
2019-01-17T18:58:58.698Z,3.10
2019-01-17T19:01:33.843Z,3.10
2019-01-17T19:04:09.345Z,3.10
2019-01-17T19:06:45.237Z,3.10
2019-01-17T19:09:20.091Z,3.10
2019-01-17T19:11:55.209Z,3.00
2019-01-17T19:14:31.737Z,3.00
2019-01-17T19:17:06.595Z,3.00
2019-01-17T19:19:41.846Z,3.00
2019-01-17T19:22:16.711Z,3.00
2019-01-17T19:24:51.542Z,3.00
2019-01-17T19:27:26.878Z,3.00
2019-01-17T19:30:01.706Z,3.00
2019-01-17T19:32:36.803Z,3.00
2019-01-17T19:35:12.057Z,3.10
2019-01-17T19:37:46.934Z,3.10
2019-01-17T19:40:26.313Z,3.10
2019-01-17T19:43:01.480Z,3.10
2019-01-17T19:45:36.390Z,3.10
2019-01-17T19:48:13.497Z,3.10
2019-01-17T19:50:55.388Z,3.10
2019-01-17T19:53:30.252Z,3.10
2019-01-17T19:56:05.087Z,3.10
2019-01-17T19:58:39.933Z,3.10
2019-01-17T20:01:15.623Z,3.10
2019-01-17T20:03:50.773Z,3.10
2019-01-17T20:06:26.010Z,3.10
2019-01-17T20:09:00.912Z,3.10
2019-01-17T20:11:37.826Z,3.20
2019-01-17T20:14:12.956Z,3.10
2019-01-17T20:16:48.872Z,3.10
2019-01-17T20:19:24.063Z,3.20
2019-01-17T20:21:59.361Z,3.10
2019-01-17T20:24:34.213Z,3.10
2019-01-17T20:27:09.317Z,3.20
2019-01-17T20:29:45.118Z,3.10
2019-01-17T20:32:20.319Z,3.10
2019-01-17T20:34:56.548Z,3.10
2019-01-17T20:37:31.983Z,3.10
2019-01-17T20:40:10.329Z,3.10
2019-01-17T20:42:46.735Z,3.10
2019-01-17T20:45:23.331Z,3.10
2019-01-17T20:47:58.582Z,3.00
2019-01-17T20:50:33.440Z,3.00
2019-01-17T20:53:08.835Z,3.00
2019-01-17T20:55:43.966Z,3.00
2019-01-17T20:58:18.802Z,3.00
2019-01-17T21:01:03.982Z,3.10
2019-01-17T21:03:38.849Z,3.00
2019-01-17T21:06:14.638Z,3.00
2019-01-17T21:08:49.789Z,3.00
2019-01-17T21:11:24.641Z,3.00
2019-01-17T21:13:59.859Z,2.90
2019-01-17T21:16:34.830Z,2.90
2019-01-17T21:19:09.689Z,2.90
2019-01-17T21:21:44.888Z,2.90
2019-01-17T21:24:20.162Z,2.90
2019-01-17T21:26:55.349Z,2.90
2019-01-17T21:29:30.481Z,2.80
2019-01-17T21:32:05.628Z,2.80
2019-01-17T21:34:41.506Z,2.70
2019-01-17T21:37:16.732Z,2.70
2019-01-17T21:39:51.622Z,2.70
2019-01-17T21:42:26.788Z,2.70
2019-01-17T21:45:02.022Z,2.70
2019-01-17T21:47:37.863Z,2.80
2019-01-17T21:50:16.593Z,2.80
2019-01-17T21:52:53.786Z,2.80
2019-01-17T21:55:28.664Z,2.80
2019-01-17T21:58:04.831Z,2.80
2019-01-17T22:00:40.122Z,2.80
2019-01-17T22:03:16.646Z,2.80
2019-01-17T22:05:52.610Z,2.80
2019-01-17T22:08:27.786Z,2.80
2019-01-17T22:11:02.677Z,2.80
2019-01-17T22:13:37.635Z,2.80
2019-01-17T22:16:13.014Z,2.80
2019-01-17T22:18:48.789Z,2.80
2019-01-17T22:21:23.993Z,2.80
2019-01-17T22:23:59.066Z,2.80
2019-01-17T22:26:33.924Z,2.80
2019-01-17T22:29:08.829Z,2.80
2019-01-17T22:31:43.677Z,2.80
2019-01-17T22:34:18.547Z,2.80
2019-01-17T22:36:53.375Z,2.80
2019-01-17T22:39:28.252Z,2.80
2019-01-17T22:42:03.458Z,2.80
2019-01-17T22:44:38.374Z,2.80
2019-01-17T22:47:13.226Z,2.70
2019-01-17T22:49:48.053Z,2.60
2019-01-17T22:52:22.909Z,2.60
2019-01-17T22:54:58.111Z,2.60
2019-01-17T22:57:33.871Z,2.60
2019-01-17T23:00:26.621Z,2.60
2019-01-17T23:03:03.399Z,2.60
2019-01-17T23:05:38.640Z,2.60
2019-01-17T23:08:13.529Z,2.60
2019-01-17T23:10:48.719Z,2.60
2019-01-17T23:13:23.950Z,2.60
2019-01-17T23:15:59.101Z,2.50
2019-01-17T23:18:33.969Z,2.60
2019-01-17T23:21:09.273Z,2.60
2019-01-17T23:23:44.144Z,2.60
2019-01-17T23:26:18.987Z,2.60
2019-01-17T23:28:53.842Z,2.60
2019-01-17T23:31:29.043Z,2.50
2019-01-17T23:34:03.927Z,2.50
2019-01-17T23:36:39.082Z,2.50
2019-01-17T23:39:14.665Z,2.40
2019-01-17T23:41:49.567Z,2.30
2019-01-17T23:44:25.307Z,2.30
2019-01-17T23:47:00.241Z,2.20
2019-01-17T23:49:35.080Z,2.20
2019-01-17T23:52:10.287Z,2.20
2019-01-17T23:54:45.433Z,2.10
2019-01-17T23:57:20.562Z,2.10
2019-01-17T23:59:56.013Z,2.10
